Time;durP1;ratioP1;P1;durP2;ratioP2;P2;SDS_P1;SDS_P2;PMS_P1;PMS_P2;Temp;Humidity;BMP_temperature;BMP_pressure;BME280_temperature;BME280_humidity;BME280_pressure;Samples;Min_cycle;Max_cycle;Signal;HPM_P1;HPM_P2
2021/09/09 00:02:25;;;;;;;4.10;2.65;;;;;;;14.10;80.74;95569.75;5115543;27;20034;-76
2021/09/09 00:04:52;;;;;;;2.95;2.35;;;;;;;14.16;80.05;95568.78;5113345;27;20061;-77
2021/09/09 00:07:19;;;;;;;2.83;2.10;;;;;;;14.11;80.30;95560.84;5116863;27;20035;-77
2021/09/09 00:09:47;;;;;;;3.33;2.63;;;;;;;14.04;80.67;95562.81;5117496;27;20039;-77
2021/09/09 00:12:14;;;;;;;3.35;2.60;;;;;;;13.96;81.04;95559.53;5115803;27;20043;-77
2021/09/09 00:14:41;;;;;;;2.85;2.47;;;;;;;14.02;81.18;95570.91;5100575;27;20046;-77
2021/09/09 00:17:08;;;;;;;3.42;2.30;;;;;;;14.09;80.58;95568.13;5115155;27;20070;-77
2021/09/09 00:19:36;;;;;;;3.55;2.35;;;;;;;14.03;80.81;95569.09;5119509;27;20134;-77
2021/09/09 00:22:04;;;;;;;2.80;2.25;;;;;;;13.93;81.98;95565.22;5117387;27;20057;-77
2021/09/09 00:24:32;;;;;;;3.08;2.28;;;;;;;14.04;80.68;95565.44;5120471;27;20039;-76
2021/09/09 00:26:59;;;;;;;3.42;2.97;;;;;;;13.96;80.62;95563.97;5111445;27;20050;-77
2021/09/09 00:29:27;;;;;;;3.40;2.60;;;;;;;13.91;81.55;95562.06;5113877;27;20031;-76
2021/09/09 00:31:57;;;;;;;3.63;2.58;;;;;;;13.86;81.57;95554.09;5098001;27;20114;-77
2021/09/09 00:34:24;;;;;;;3.85;3.13;;;;;;;13.84;81.62;95561.41;5115899;27;20074;-77
2021/09/09 00:36:52;;;;;;;4.50;2.72;;;;;;;13.84;81.96;95561.41;5119415;27;20127;-76
2021/09/09 00:39:19;;;;;;;5.90;2.88;;;;;;;13.90;81.78;95555.25;5113724;27;20065;-77
2021/09/09 00:41:46;;;;;;;3.22;2.75;;;;;;;14.00;81.66;95565.09;5113464;28;20104;-77
2021/09/09 00:44:23;;;;;;;3.25;2.60;;;;;;;14.00;80.98;95556.47;5117989;27;20477;-77
2021/09/09 00:47:03;;;;;;;3.47;2.80;;;;;;;13.91;81.73;95562.06;5116196;27;20031;-77
2021/09/09 00:49:31;;;;;;;5.07;3.22;;;;;;;13.80;81.95;95560.28;5112724;27;20047;-77
2021/09/09 00:51:58;;;;;;;3.47;2.72;;;;;;;13.68;82.36;95551.66;5109558;28;20047;-77
2021/09/09 00:54:26;;;;;;;3.88;2.83;;;;;;;13.62;82.81;95552.59;5115889;28;20100;-76
2021/09/09 00:56:53;;;;;;;2.50;2.25;;;;;;;13.62;83.52;95563.06;5119177;28;20046;-77
2021/09/09 00:59:20;;;;;;;5.25;3.25;;;;;;;13.60;83.38;95554.66;5116912;28;20035;-77
2021/09/09 01:01:47;;;;;;;3.88;2.97;;;;;;;13.60;83.38;95559.91;5110920;28;20083;-76
2021/09/09 01:04:17;;;;;;;3.45;2.83;;;;;;;13.49;84.48;95554.44;5111174;28;20408;-77
2021/09/09 01:06:44;;;;;;;3.20;2.70;;;;;;;13.59;84.34;95561.69;5111005;28;20519;-77
2021/09/09 01:09:11;;;;;;;3.97;3.10;;;;;;;13.57;84.29;95567.16;5119641;28;20531;-77
2021/09/09 01:11:38;;;;;;;3.47;2.97;;;;;;;13.62;84.35;95557.84;5120883;28;20044;-77
2021/09/09 01:14:12;;;;;;;4.03;3.58;;;;;;;13.71;84.47;95566.91;5116712;28;20381;-77
2021/09/09 01:16:39;;;;;;;;;;;;;;;13.75;83.86;95562.78;5118410;28;20044;-77
2021/09/09 01:19:07;;;;;;;3.10;2.53;;;;;;;13.73;83.46;95560.41;5113038;28;20375;-77
2021/09/09 01:21:34;;;;;;;4.07;2.60;;;;;;;13.78;82.92;95572.81;5114751;28;20040;-77
2021/09/09 01:24:02;;;;;;;4.55;2.97;;;;;;;13.82;82.94;95563.47;5094639;28;20508;-77
2021/09/09 01:26:30;;;;;;;4.63;3.13;;;;;;;13.82;82.45;95563.47;5118058;28;20088;-75
2021/09/09 01:28:58;;;;;;;4.07;3.05;;;;;;;13.86;82.73;95564.56;5108467;28;20050;-74
2021/09/09 01:31:24;;;;;;;3.00;2.60;;;;;;;13.83;82.51;95559.81;5118293;27;20096;-75
2021/09/09 01:33:55;;;;;;;3.90;3.00;;;;;;;13.80;83.13;95568.13;5122683;27;20035;-75
2021/09/09 01:36:23;;;;;;;4.85;2.65;;;;;;;13.79;82.69;95573.59;5119220;27;20466;-75
2021/09/09 01:38:50;;;;;;;4.05;2.70;;;;;;;13.76;83.45;95559.16;5117280;27;20108;-75
2021/09/09 01:41:17;;;;;;;2.88;2.58;;;;;;;13.76;82.97;95570.41;5116295;27;20047;-74
2021/09/09 01:43:43;;;;;;;4.00;2.42;;;;;;;13.66;83.42;95566.81;5117295;27;20471;-75
2021/09/09 01:46:10;;;;;;;3.78;2.63;;;;;;;13.71;83.01;95570.31;5122601;27;20052;-75
2021/09/09 01:48:37;;;;;;;4.25;3.17;;;;;;;13.62;83.56;95569.09;5118112;27;20047;-74
2021/09/09 01:51:04;;;;;;;3.40;2.55;;;;;;;13.63;83.64;95569.88;5122015;27;20076;-75
2021/09/09 01:53:31;;;;;;;3.40;2.47;;;;;;;13.70;83.19;95575.78;5102945;27;20043;-75
2021/09/09 01:55:58;;;;;;;4.18;2.72;;;;;;;13.71;83.30;95566.91;5116716;27;20052;-74
2021/09/09 01:58:24;;;;;;;3.22;2.72;;;;;;;13.69;82.97;95567.13;5114613;27;20039;-75
2021/09/09 02:00:51;;;;;;;5.60;2.85;;;;;;;13.64;83.72;95571.47;5111533;27;20496;-75
2021/09/09 02:03:18;;;;;;;3.60;2.50;;;;;;;13.57;84.71;95572.41;5119028;27;20047;-75
2021/09/09 02:05:45;;;;;;;4.25;2.55;;;;;;;13.50;84.83;95566.50;5114419;27;20039;-75
2021/09/09 02:08:12;;;;;;;3.80;2.70;;;;;;;13.49;84.69;95575.38;5115442;27;20520;-75
2021/09/09 02:10:39;;;;;;;4.10;3.10;;;;;;;13.48;85.25;95568.53;5113219;27;20107;-75
2021/09/09 02:13:06;;;;;;;4.63;2.50;;;;;;;13.52;84.94;95568.88;5115839;27;20171;-75
2021/09/09 02:15:32;;;;;;;3.20;2.40;;;;;;;13.48;84.81;95558.06;5113547;27;20032;-75
2021/09/09 02:17:59;;;;;;;3.03;2.63;;;;;;;13.49;84.90;95569.38;5115015;27;20036;-75
2021/09/09 02:20:26;;;;;;;2.92;2.15;;;;;;;13.56;84.54;95565.59;5111616;27;20047;-75
2021/09/09 02:22:53;;;;;;;3.45;2.63;;;;;;;13.42;85.05;95564.25;5118929;27;20035;-74
2021/09/09 02:25:20;;;;;;;3.28;2.53;;;;;;;13.48;85.21;95568.53;5119848;27;20040;-75
2021/09/09 02:27:46;;;;;;;4.03;2.67;;;;;;;13.52;85.10;95564.47;5117730;27;20054;-75
2021/09/09 02:30:14;;;;;;;4.00;2.30;;;;;;;13.40;85.34;95563.69;5115083;27;20048;-74
2021/09/09 02:32:41;;;;;;;4.65;2.95;;;;;;;13.40;85.57;95568.91;5121025;27;20031;-74
2021/09/09 02:35:08;;;;;;;3.83;2.35;;;;;;;13.39;85.17;95564.69;5117224;27;20043;-75
2021/09/09 02:37:35;;;;;;;4.13;2.85;;;;;;;13.43;85.36;95568.44;5118242;27;20044;-74
2021/09/09 02:40:02;;;;;;;2.60;2.03;;;;;;;13.28;86.22;95558.44;5095677;27;20210;-75
2021/09/09 02:42:29;;;;;;;3.42;2.63;;;;;;;13.34;87.06;95561.97;5113809;27;20482;-75
2021/09/09 02:44:56;;;;;;;2.22;1.83;;;;;;;13.39;87.01;95564.69;5117108;27;20047;-75
2021/09/09 02:47:23;;;;;;;5.25;2.42;;;;;;;13.41;86.73;95567.88;5113124;27;20048;-75
2021/09/09 02:49:50;;;;;;;2.80;1.98;;;;;;;13.38;87.18;95569.16;5118288;27;20039;-75
2021/09/09 02:52:17;;;;;;;4.28;2.35;;;;;;;13.37;87.62;95564.13;5116847;27;20039;-75
2021/09/09 02:54:43;;;;;;;3.38;2.22;;;;;;;13.44;87.54;95562.19;5120735;27;20085;-75
2021/09/09 02:57:10;;;;;;;4.53;2.65;;;;;;;13.55;86.76;95571.03;5119521;27;20051;-75
2021/09/09 02:59:37;;;;;;;2.75;1.95;;;;;;;13.54;86.90;95567.63;5122152;27;20043;-75
2021/09/09 03:02:04;;;;;;;2.75;2.33;;;;;;;13.52;87.13;95569.69;5119017;27;20043;-74
2021/09/09 03:04:31;;;;;;;3.38;2.42;;;;;;;13.53;86.78;95570.47;5115163;27;20043;-75
2021/09/09 03:06:58;;;;;;;3.22;2.33;;;;;;;13.51;86.86;95562.06;5115008;27;20504;-74
2021/09/09 03:09:25;;;;;;;2.53;2.10;;;;;;;13.47;87.88;95561.75;5114609;27;20108;-75
2021/09/09 03:11:52;;;;;;;5.78;2.42;;;;;;;13.39;88.26;95559.47;5122877;27;20054;-74
2021/09/09 03:14:18;;;;;;;3.70;2.50;;;;;;;13.46;87.53;95565.38;5117005;27;20043;-75
2021/09/09 03:16:45;;;;;;;2.85;2.05;;;;;;;13.58;86.97;95566.16;5117300;27;20036;-75
2021/09/09 03:19:12;;;;;;;5.10;2.72;;;;;;;13.60;87.14;95568.53;5119592;27;20516;-77
2021/09/09 03:21:39;;;;;;;3.33;2.28;;;;;;;13.49;87.28;95559.69;5114174;27;20047;-77
2021/09/09 03:24:06;;;;;;;4.30;2.33;;;;;;;13.61;87.04;95567.50;5119283;27;20469;-77
2021/09/09 03:26:32;;;;;;;2.70;2.30;;;;;;;13.66;87.31;95569.44;5117082;27;20439;-77
2021/09/09 03:28:59;;;;;;;4.75;3.28;;;;;;;13.67;87.27;95566.59;5112966;27;20050;-77
2021/09/09 03:31:26;;;;;;;3.15;2.40;;;;;;;13.75;86.62;95568.03;5119460;27;20046;-77
2021/09/09 03:33:53;;;;;;;3.83;2.63;;;;;;;13.82;86.09;95557.44;5123009;27;20037;-76
2021/09/09 03:36:20;;;;;;;2.20;1.92;;;;;;;13.84;85.96;95571.09;5117748;27;20066;-77
2021/09/09 03:38:47;;;;;;;2.83;2.40;;;;;;;13.81;86.03;95567.13;5117036;27;20532;-77
2021/09/09 03:41:13;;;;;;;4.03;2.63;;;;;;;13.77;86.20;95560.75;5116377;27;20054;-77
2021/09/09 03:43:40;;;;;;;3.53;2.45;;;;;;;13.63;86.44;95554.19;5114027;27;20100;-77
2021/09/09 03:46:07;;;;;;;3.55;2.40;;;;;;;13.58;86.17;95553.06;5113071;27;20053;-76
2021/09/09 03:48:34;;;;;;;3.22;2.42;;;;;;;13.74;86.13;95561.22;5112610;27;20058;-77
2021/09/09 03:51:00;;;;;;;4.07;2.50;;;;;;;13.71;86.69;95566.91;5112540;27;20104;-77
2021/09/09 03:53:27;;;;;;;2.67;2.13;;;;;;;13.70;87.17;95560.06;5106535;27;20096;-77
2021/09/09 03:55:54;;;;;;;4.10;2.63;;;;;;;13.74;87.20;95566.47;5111701;27;20101;-77
2021/09/09 03:58:25;;;;;;;3.85;2.38;;;;;;;13.75;86.97;95562.78;5118216;27;20508;-77
2021/09/09 04:00:52;;;;;;;3.45;3.15;;;;;;;13.69;86.58;95553.25;5115069;27;20031;-76
2021/09/09 04:03:19;;;;;;;3.22;2.50;;;;;;;13.80;86.69;95565.50;5119617;27;20492;-77
2021/09/09 04:05:46;;;;;;;3.20;2.22;;;;;;;13.84;87.12;95560.59;5097537;27;20108;-77
2021/09/09 04:08:13;;;;;;;3.55;2.30;;;;;;;13.82;86.99;95558.22;5116874;27;20109;-77
2021/09/09 04:10:39;;;;;;;2.88;2.08;;;;;;;13.85;85.96;95557.75;5113327;27;20046;-77
2021/09/09 04:13:06;;;;;;;6.05;2.50;;;;;;;13.84;85.32;95556.16;5113584;27;20104;-77
2021/09/09 04:15:33;;;;;;;3.30;2.13;;;;;;;13.90;85.08;95560.47;5117495;27;20416;-77
2021/09/09 04:18:00;;;;;;;3.38;2.47;;;;;;;13.92;85.44;95558.41;5113240;27;21269;-75
2021/09/09 04:20:27;;;;;;;4.78;3.05;;;;;;;13.91;85.22;95551.56;5113274;27;20043;-75
2021/09/09 04:22:54;;;;;;;5.38;2.17;;;;;;;14.04;85.28;95549.72;5114285;27;20043;-75
2021/09/09 04:25:20;;;;;;;5.38;2.42;;;;;;;13.96;85.71;95546.44;5117049;27;20039;-75
2021/09/09 04:27:47;;;;;;;4.82;3.10;;;;;;;14.04;85.41;95549.72;5115285;27;20100;-77
2021/09/09 04:30:14;;;;;;;6.28;2.35;;;;;;;14.03;85.83;95548.13;5118785;27;20042;-77
2021/09/09 04:32:41;;;;;;;2.55;2.08;;;;;;;14.04;85.35;95529.53;5114870;27;20039;-77
2021/09/09 04:35:08;;;;;;;6.25;2.78;;;;;;;14.15;85.47;95546.22;5120470;27;20035;-76
2021/09/09 04:37:36;;;;;;;3.05;2.42;;;;;;;14.15;85.69;95535.75;5116201;27;20523;-77
2021/09/09 04:40:04;;;;;;;3.22;2.50;;;;;;;14.17;85.43;95533.72;5114754;27;20096;-77
2021/09/09 04:42:31;;;;;;;3.20;2.30;;;;;;;14.21;85.29;95534.84;5113390;27;20046;-77
2021/09/09 04:44:58;;;;;;;2.70;2.10;;;;;;;14.27;84.61;95522.59;5098243;28;20047;-77
2021/09/09 04:47:25;;;;;;;2.88;1.98;;;;;;;14.29;84.03;95510.06;5097536;28;20058;-77
2021/09/09 04:49:51;;;;;;;5.53;2.65;;;;;;;14.44;84.04;95517.38;5117468;27;20100;-77
2021/09/09 04:52:18;;;;;;;3.42;2.55;;;;;;;14.47;84.04;95516.91;5112250;28;20096;-77
2021/09/09 04:54:45;;;;;;;2.35;2.05;;;;;;;14.50;84.50;95521.69;5110009;28;20051;-77
2021/09/09 04:57:13;;;;;;;2.72;1.65;;;;;;;14.56;84.33;95523.31;5109879;28;20043;-77
2021/09/09 04:59:39;;;;;;;3.53;2.30;;;;;;;14.57;84.71;95527.56;5116969;28;20393;-77
2021/09/09 05:02:06;;;;;;;2.95;2.20;;;;;;;14.53;85.92;95526.41;5114629;28;20048;-77
2021/09/09 05:04:33;;;;;;;4.57;2.28;;;;;;;14.44;85.54;95527.84;5115093;27;20042;-77
2021/09/09 05:07:00;;;;;;;2.72;1.80;;;;;;;14.38;85.13;95523.56;5120374;27;20050;-77
2021/09/09 05:09:27;;;;;;;2.65;1.85;;;;;;;14.40;85.12;95518.88;5121038;27;20071;-76
2021/09/09 05:11:53;;;;;;;7.75;3.72;;;;;;;14.48;85.04;95518.50;5118598;27;20050;-77
2021/09/09 05:14:20;;;;;;;4.78;2.20;;;;;;;14.53;84.74;95510.69;5124743;27;20052;-77
2021/09/09 05:16:47;;;;;;;3.15;2.30;;;;;;;14.53;84.80;95513.31;5115917;27;20032;-76
2021/09/09 05:19:14;;;;;;;7.82;2.53;;;;;;;14.65;83.80;95524.53;5118155;27;20090;-77
2021/09/09 05:21:40;;;;;;;2.55;1.92;;;;;;;14.75;83.46;95530.97;5119206;27;20402;-77
2021/09/09 05:24:08;;;;;;;5.80;2.00;;;;;;;14.80;82.54;95520.56;5119505;27;20039;-77
2021/09/09 05:26:35;;;;;;;2.75;2.25;;;;;;;14.72;81.85;95524.38;5117331;27;20047;-77
2021/09/09 05:29:01;;;;;;;6.47;2.35;;;;;;;14.80;80.68;95523.19;5116453;27;20047;-77
2021/09/09 05:31:28;;;;;;;2.92;2.10;;;;;;;14.86;81.29;95519.63;5123607;27;20072;-77
2021/09/09 05:33:55;;;;;;;1.95;1.60;;;;;;;14.86;81.01;95525.66;5121805;27;20031;-77
2021/09/09 05:36:22;;;;;;;1.92;1.73;;;;;;;14.80;80.90;95531.06;5119196;27;20529;-76
2021/09/09 05:38:49;;;;;;;2.17;1.73;;;;;;;14.89;81.08;95525.19;5116701;27;20043;-76
2021/09/09 05:41:15;;;;;;;2.25;1.92;;;;;;;14.90;80.29;95520.72;5096771;28;20346;-75
2021/09/09 05:43:42;;;;;;;8.02;2.45;;;;;;;14.85;80.75;95520.63;5122081;27;20084;-76
2021/09/09 05:46:09;;;;;;;2.78;2.10;;;;;;;14.83;81.91;95501.72;5123723;27;21580;-76
2021/09/09 05:48:36;;;;;;;3.42;2.55;;;;;;;14.96;82.16;95519.75;5116204;27;20555;-76
2021/09/09 05:51:02;;;;;;;5.28;1.92;;;;;;;14.82;82.23;95514.06;5114400;27;20058;-75
2021/09/09 05:53:29;;;;;;;3.65;2.25;;;;;;;14.89;81.23;95511.25;5093756;27;20050;-76
2021/09/09 05:55:56;;;;;;;2.47;2.25;;;;;;;15.01;80.41;95511.94;5115784;27;20496;-76
2021/09/09 05:58:23;;;;;;;3.40;2.10;;;;;;;15.08;80.67;95512.56;5115558;27;20035;-76
2021/09/09 06:00:50;;;;;;;3.22;1.98;;;;;;;15.05;81.13;95520.94;5115950;27;20058;-76
2021/09/09 06:03:25;;;;;;;3.05;2.50;;;;;;;15.08;81.98;95523.06;5111870;27;20035;-76
2021/09/09 06:06:01;;;;;;;2.72;2.42;;;;;;;15.12;81.56;95517.34;5113812;27;20088;-76
2021/09/09 06:08:34;;;;;;;3.78;2.63;;;;;;;15.17;81.48;95520.03;5120204;27;20031;-76
2021/09/09 06:11:02;;;;;;;3.30;1.88;;;;;;;15.23;80.53;95519.06;5118446;27;20058;-75
2021/09/09 06:13:29;;;;;;;4.30;2.72;;;;;;;15.17;80.31;95509.53;5116075;27;20496;-75
2021/09/09 06:15:56;;;;;;;2.35;1.85;;;;;;;15.22;79.88;95522.72;5121825;27;20519;-76
2021/09/09 06:18:22;;;;;;;4.00;2.85;;;;;;;15.32;80.35;95528.09;5122481;27;20408;-76
2021/09/09 06:20:49;;;;;;;3.83;2.42;;;;;;;15.47;80.27;95519.63;5119242;27;20047;-76
2021/09/09 06:23:16;;;;;;;2.50;2.28;;;;;;;15.40;79.89;95513.75;5115825;27;20032;-76
2021/09/09 06:25:43;;;;;;;3.03;2.22;;;;;;;15.32;79.09;95511.56;5119488;27;20435;-75
2021/09/09 06:28:10;;;;;;;3.63;2.33;;;;;;;15.42;79.14;95516.94;5123936;27;20039;-76
2021/09/09 06:30:37;;;;;;;25.23;3.28;;;;;;;15.35;79.57;95511.88;5117997;27;20047;-76
2021/09/09 06:33:04;;;;;;;2.75;1.92;;;;;;;15.49;79.29;95522.78;5097251;27;20186;-75
2021/09/09 06:35:32;;;;;;;3.38;2.22;;;;;;;15.61;77.89;95522.66;5122649;27;20043;-76
2021/09/09 06:37:59;;;;;;;3.05;2.30;;;;;;;15.63;78.71;95518.75;5121293;27;20034;-75
2021/09/09 06:40:26;;;;;;;3.70;2.58;;;;;;;15.77;77.67;95519.22;5122077;27;20053;-75
2021/09/09 06:42:52;;;;;;;3.33;1.83;;;;;;;15.92;75.70;95517.75;5113458;27;20059;-76
2021/09/09 06:45:19;;;;;;;3.60;2.00;;;;;;;15.91;76.53;95518.81;5117552;27;20046;-75
2021/09/09 06:47:46;;;;;;;2.92;2.10;;;;;;;16.02;75.43;95515.25;5113542;27;20530;-76
2021/09/09 06:50:13;;;;;;;3.75;2.40;;;;;;;16.12;76.63;95525.84;5117282;27;20432;-76
2021/09/09 06:52:40;;;;;;;2.42;2.10;;;;;;;16.13;75.66;95527.44;5114321;27;20039;-75
2021/09/09 06:55:07;;;;;;;3.95;2.42;;;;;;;16.22;75.98;95536.47;5115136;27;20103;-75
2021/09/09 06:57:34;;;;;;;4.38;2.85;;;;;;;16.29;75.53;95530.22;5113829;27;20447;-76
2021/09/09 07:00:01;;;;;;;2.40;1.75;;;;;;;16.33;74.28;95536.53;5116207;27;20044;-75
2021/09/09 07:02:28;;;;;;;2.58;2.13;;;;;;;16.31;73.99;95538.63;5119098;27;20035;-76
2021/09/09 07:04:55;;;;;;;2.45;1.90;;;;;;;16.23;74.66;95532.78;5098348;27;20065;-76
2021/09/09 07:07:21;;;;;;;4.28;2.08;;;;;;;16.30;75.72;95521.28;5122745;27;20039;-76
2021/09/09 07:09:48;;;;;;;5.65;2.25;;;;;;;16.39;75.67;95531.09;5098913;28;20048;-76
2021/09/09 07:12:15;;;;;;;2.92;2.17;;;;;;;16.39;73.76;95535.56;5113041;27;20096;-76
2021/09/09 07:14:42;;;;;;;1.83;1.55;;;;;;;16.39;73.61;95536.34;5122618;27;20043;-76
2021/09/09 07:17:08;;;;;;;1.83;1.40;;;;;;;16.56;73.19;95541.47;5117210;27;20631;-75
2021/09/09 07:19:35;;;;;;;1.88;1.45;;;;;;;16.55;72.43;95541.75;5112740;27;20055;-75
2021/09/09 07:22:02;;;;;;;3.78;1.75;;;;;;;16.51;72.01;95536.19;5110966;27;20497;-75
2021/09/09 07:24:29;;;;;;;1.60;1.38;;;;;;;16.46;72.42;95543.22;5117106;27;20404;-75
2021/09/09 07:26:56;;;;;;;2.10;1.67;;;;;;;16.45;72.42;95537.19;5114479;27;20036;-75
2021/09/09 07:29:23;;;;;;;1.85;1.40;;;;;;;16.57;73.38;95547.53;5117006;27;20044;-75
2021/09/09 07:31:50;;;;;;;2.22;1.60;;;;;;;16.62;72.62;95535.22;5118023;27;20397;-76
2021/09/09 07:34:16;;;;;;;2.55;1.83;;;;;;;16.56;72.35;95536.22;5090829;28;20046;-75
2021/09/09 07:36:44;;;;;;;3.00;1.73;;;;;;;16.69;72.44;95544.72;5116699;27;20113;-76
2021/09/09 07:39:11;;;;;;;1.67;1.48;;;;;;;16.56;73.34;95541.47;5115445;27;20389;-76
2021/09/09 07:41:38;;;;;;;4.43;1.70;;;;;;;16.51;75.13;95544.09;5118322;27;20093;-75
2021/09/09 07:44:04;;;;;;;3.65;1.77;;;;;;;16.53;76.49;95547.25;5116721;27;20412;-76
2021/09/09 07:46:31;;;;;;;2.05;1.50;;;;;;;16.48;77.29;95544.56;5115064;27;20035;-76
2021/09/09 07:48:58;;;;;;;2.38;2.15;;;;;;;16.33;79.45;95549.69;5109032;27;20488;-76
2021/09/09 07:51:25;;;;;;;4.32;2.35;;;;;;;16.22;78.47;95552.25;5117290;27;20051;-76
2021/09/09 07:53:52;;;;;;;3.35;1.83;;;;;;;16.15;78.89;95541.13;5117519;27;20032;-77
2021/09/09 07:56:18;;;;;;;4.75;2.25;;;;;;;16.22;81.77;95554.88;5115889;27;20047;-78
2021/09/09 07:58:48;;;;;;;3.45;2.33;;;;;;;16.29;84.17;95556.50;5126027;27;20039;-77
2021/09/09 08:01:20;;;;;;;4.28;3.10;;;;;;;16.20;87.96;95554.31;5108002;27;20061;-76
2021/09/09 08:03:47;;;;;;;6.10;2.40;;;;;;;16.18;88.87;95551.13;5107834;27;20118;-77
2021/09/09 08:06:15;;;;;;;6.70;3.58;;;;;;;16.12;88.73;95562.66;5126128;27;20043;-77
2021/09/09 08:08:42;;;;;;;7.28;3.00;;;;;;;16.13;90.18;95560.81;5116702;27;20484;-77
2021/09/09 08:11:09;;;;;;;3.78;2.63;;;;;;;16.12;91.59;95546.88;5114774;27;20473;-78
2021/09/09 08:13:36;;;;;;;5.10;2.90;;;;;;;16.01;90.28;95560.97;5125766;27;20042;-78
2021/09/09 08:16:04;;;;;;;6.35;3.22;;;;;;;16.14;92.13;95560.56;5093704;28;20096;-78
2021/09/09 08:18:31;;;;;;;5.40;3.58;;;;;;;16.28;89.99;95550.44;5105011;28;20473;-78
2021/09/09 08:20:58;;;;;;;2.83;2.53;;;;;;;16.22;92.73;95552.25;5108990;27;20032;-77
2021/09/09 08:23:25;;;;;;;2.53;2.13;;;;;;;16.31;88.14;95549.16;5113113;27;20536;-77
2021/09/09 08:25:52;;;;;;;2.63;2.35;;;;;;;16.38;87.03;95539.22;5125754;27;20062;-77
2021/09/09 08:28:19;;;;;;;2.80;2.33;;;;;;;16.30;86.28;95555.47;5104271;28;20043;-76
2021/09/09 08:30:47;;;;;;;4.35;2.17;;;;;;;16.33;86.48;95547.88;5108582;27;20046;-76
2021/09/09 08:33:14;;;;;;;4.40;1.90;;;;;;;16.41;83.67;95551.88;5125408;27;20530;-76
2021/09/09 08:35:42;;;;;;;4.35;2.28;;;;;;;16.57;86.66;95552.81;5125120;27;20469;-75
2021/09/09 08:38:10;;;;;;;2.85;2.25;;;;;;;16.59;81.66;95556.75;5122433;27;20573;-76
2021/09/09 08:40:38;;;;;;;3.47;2.60;;;;;;;16.73;80.46;95551.88;5106016;28;20066;-77
2021/09/09 08:43:07;;;;;;;4.18;2.35;;;;;;;16.78;82.13;95551.91;5105510;28;20035;-77
2021/09/09 08:45:34;;;;;;;2.85;2.17;;;;;;;16.81;78.50;95542.72;5105014;28;20031;-77
2021/09/09 08:48:04;;;;;;;2.55;1.80;;;;;;;16.76;80.39;95553.19;5104834;28;20504;-77
2021/09/09 08:50:32;;;;;;;2.58;1.70;;;;;;;16.94;79.83;95550.22;5107779;28;20039;-78
2021/09/09 08:53:01;;;;;;;5.00;2.15;;;;;;;17.06;81.64;95549.22;5112508;28;20099;-78
2021/09/09 08:55:28;;;;;;;2.45;1.58;;;;;;;17.17;81.03;95550.88;5107090;28;20035;-78
2021/09/09 08:57:56;;;;;;;2.55;1.75;;;;;;;17.26;80.09;95549.34;5114171;28;20492;-78
2021/09/09 09:00:24;;;;;;;2.88;1.58;;;;;;;17.28;81.64;95547.25;5109545;28;20043;-78
2021/09/09 09:02:53;;;;;;;2.40;1.60;;;;;;;17.17;78.90;95551.66;5109067;28;20502;-78
2021/09/09 09:05:21;;;;;;;3.15;1.90;;;;;;;17.14;77.61;95551.38;5118781;28;20063;-79
2021/09/09 09:07:58;;;;;;;3.13;1.58;;;;;;;17.24;77.64;95556.69;5115631;28;20041;-79
2021/09/09 09:10:25;;;;;;;1.98;1.27;;;;;;;17.00;76.48;95540.53;5117226;28;20054;-78
2021/09/09 09:12:52;;;;;;;3.70;2.15;;;;;;;17.35;80.44;95558.34;5117964;28;20563;-79
2021/09/09 09:15:32;;;;;;;5.00;2.00;;;;;;;17.53;78.16;95548.41;5114831;28;20100;-78
2021/09/09 09:18:10;;;;;;;2.92;1.73;;;;;;;17.53;77.41;95532.63;5110699;28;20035;-79
2021/09/09 09:20:45;;;;;;;2.22;1.60;;;;;;;17.87;76.99;95548.06;5114018;28;20069;-78
2021/09/09 09:23:21;;;;;;;2.70;1.73;;;;;;;17.71;75.86;95526.88;5117390;28;20071;-79
2021/09/09 09:26:03;;;;;;;2.85;1.60;;;;;;;17.89;72.52;95535.41;5120061;28;20040;-79
2021/09/09 09:28:51;;;;;;;2.72;1.88;;;;;;;17.81;70.42;95538.50;5101527;28;20477;-79
2021/09/09 09:31:22;;;;;;;4.60;1.83;;;;;;;17.81;73.69;95538.50;5109267;28;20046;-78
2021/09/09 09:34:03;;;;;;;3.28;2.33;;;;;;;17.51;70.49;95534.72;5095491;28;20421;-79
2021/09/09 09:36:34;;;;;;;4.47;1.75;;;;;;;17.57;70.21;95533.69;5115334;28;20040;-78
2021/09/09 09:39:19;;;;;;;1.40;0.90;;;;;;;17.28;68.63;95547.25;5116685;28;20049;-78
2021/09/09 09:42:01;;;;;;;2.83;1.90;;;;;;;17.15;72.26;95526.66;5121269;28;20088;-79
2021/09/09 09:44:30;;;;;;;2.78;1.30;;;;;;;17.29;72.70;95538.31;5103236;28;20470;-77
2021/09/09 09:47:21;;;;;;;2.13;1.10;;;;;;;17.30;73.22;95537.25;5115491;28;20549;-78
2021/09/09 09:49:50;;;;;;;3.42;1.55;;;;;;;17.28;74.09;95531.44;5111234;28;20427;-78
2021/09/09 09:52:29;;;;;;;3.85;1.23;;;;;;;17.12;72.99;95532.41;5118140;27;20040;-78
2021/09/09 09:54:57;;;;;;;2.22;1.35;;;;;;;17.02;73.93;95532.38;5108945;27;20329;-78
2021/09/09 09:57:27;;;;;;;2.55;1.17;;;;;;;17.11;74.90;95530.84;5116854;27;20302;-78
2021/09/09 09:59:54;;;;;;;2.35;1.20;;;;;;;17.17;74.34;95527.97;5111046;27;20744;-78
2021/09/09 10:02:23;;;;;;;1.63;0.75;;;;;;;17.19;73.82;95527.72;5115384;27;20039;-78
2021/09/09 10:04:51;;;;;;;2.03;1.05;;;;;;;17.20;73.67;95524.03;5110660;27;20036;-78
2021/09/09 10:07:18;;;;;;;1.75;1.20;;;;;;;17.35;75.24;95536.50;5127659;27;20114;-78
2021/09/09 10:09:49;;;;;;;2.15;1.45;;;;;;;17.39;74.12;95533.09;5125062;27;20110;-78
2021/09/09 10:12:16;;;;;;;2.90;1.10;;;;;;;17.48;75.16;95519.44;5123617;27;20043;-78
2021/09/09 10:14:49;;;;;;;1.23;1.02;;;;;;;17.28;77.29;95531.44;5118762;27;20036;-78
2021/09/09 10:17:21;;;;;;;2.03;1.23;;;;;;;17.17;77.42;95517.44;5112801;27;20043;-78
2021/09/09 10:19:51;;;;;;;1.77;1.55;;;;;;;17.26;76.00;95512.47;5092675;27;20047;-77
2021/09/09 10:22:20;;;;;;;2.63;1.10;;;;;;;17.13;75.53;95512.94;5113134;27;20043;-77
2021/09/09 10:24:49;;;;;;;2.72;1.40;;;;;;;16.99;77.56;95529.19;5121297;27;20076;-78
2021/09/09 10:27:23;;;;;;;7.03;1.25;;;;;;;16.81;79.07;95534.81;5115838;27;20294;-77
2021/09/09 10:29:57;;;;;;;3.50;1.45;;;;;;;16.74;77.88;95521.09;5118400;27;20039;-78
2021/09/09 10:32:33;;;;;;;1.65;1.20;;;;;;;16.78;77.11;95517.72;5119800;27;20040;-78
2021/09/09 10:35:18;;;;;;;4.68;1.52;;;;;;;16.84;77.18;95526.47;5116546;27;20039;-78
2021/09/09 10:37:55;;;;;;;2.03;1.00;;;;;;;16.79;76.72;95518.50;5121052;27;20068;-77
2021/09/09 10:40:28;;;;;;;2.03;1.33;;;;;;;16.81;78.42;95516.41;5118123;27;20121;-77
2021/09/09 10:43:06;;;;;;;2.55;0.75;;;;;;;16.84;76.52;95520.41;5119057;27;20046;-78
2021/09/09 10:45:33;;;;;;;2.33;1.08;;;;;;;16.76;77.23;95522.44;5116463;27;20113;-78
2021/09/09 10:48:05;;;;;;;1.98;0.80;;;;;;;16.68;78.61;95511.59;5116583;27;20059;-78
2021/09/09 10:50:32;;;;;;;1.92;1.50;;;;;;;16.73;78.51;95524.78;5114854;27;20108;-79
2021/09/09 10:53:07;;;;;;;2.17;1.00;;;;;;;16.73;76.36;95524.78;5121525;27;20491;-78
2021/09/09 10:55:37;;;;;;;9.93;1.70;;;;;;;16.71;77.26;95516.34;5106173;27;20065;-79
2021/09/09 10:58:19;;;;;;;1.80;1.20;;;;;;;16.89;77.48;95518.59;5120560;27;20031;-79
2021/09/09 11:00:52;;;;;;;1.38;1.10;;;;;;;17.02;76.77;95513.94;5115984;27;20035;-78
2021/09/09 11:03:40;;;;;;;1.92;1.58;;;;;;;16.97;76.39;95515.50;5125223;27;20039;-79
2021/09/09 11:06:20;;;;;;;1.98;1.20;;;;;;;16.97;77.29;95510.22;5110772;27;20047;-79
2021/09/09 11:08:53;;;;;;;1.48;1.08;;;;;;;16.91;77.99;95511.25;5112828;27;20047;-78
2021/09/09 11:11:28;;;;;;;1.77;1.40;;;;;;;16.98;78.37;95509.19;5124714;27;20122;-79
2021/09/09 11:14:00;;;;;;;6.72;2.15;;;;;;;17.10;77.23;95503.72;5119574;27;20039;-78
2021/09/09 11:16:29;;;;;;;1.70;0.90;;;;;;;17.14;77.53;95506.63;5106907;27;20035;-78
2021/09/09 11:18:56;;;;;;;2.00;1.13;;;;;;;17.22;76.91;95494.84;5118100;27;20521;-78
2021/09/09 11:21:26;;;;;;;2.33;1.30;;;;;;;17.30;75.64;95497.75;5111563;27;20451;-78
2021/09/09 11:24:07;;;;;;;1.55;0.95;;;;;;;17.66;72.95;95511.06;5111819;27;20047;-78
2021/09/09 11:26:36;;;;;;;1.52;1.10;;;;;;;17.76;74.05;95500.56;5117503;27;20046;-78
2021/09/09 11:29:04;;;;;;;3.97;1.52;;;;;;;17.82;73.33;95503.22;5116983;27;20500;-78
2021/09/09 11:31:33;;;;;;;2.72;1.58;;;;;;;17.90;74.41;95500.88;5104437;27;20051;-78
2021/09/09 11:34:04;;;;;;;2.95;1.08;;;;;;;18.18;70.57;95487.47;5124497;27;20039;-78
2021/09/09 11:36:40;;;;;;;1.80;1.17;;;;;;;18.59;69.45;95490.13;5117349;27;20507;-78
2021/09/09 11:39:16;;;;;;;1.10;1.00;;;;;;;18.61;69.29;95488.00;5093760;27;20039;-78
2021/09/09 11:41:43;;;;;;;2.42;1.13;;;;;;;18.77;70.50;95486.94;5119741;27;20440;-78